createdAt,value
2019-03-27T00:00:19.802Z,18.83
2019-03-27T00:02:48.819Z,14.73
2019-03-27T00:05:20.873Z,17.03
2019-03-27T00:07:49.892Z,15.97
2019-03-27T00:10:18.876Z,16.80
2019-03-27T00:12:47.859Z,15.60
2019-03-27T00:15:16.732Z,16.37
2019-03-27T00:17:45.607Z,17.43
2019-03-27T00:20:14.755Z,14.20
2019-03-27T00:22:44.034Z,15.33
2019-03-27T00:25:13.083Z,17.10
2019-03-27T00:27:43.599Z,15.07
2019-03-27T00:30:12.690Z,14.53
2019-03-27T00:32:41.653Z,13.10
2019-03-27T00:35:10.693Z,15.93
2019-03-27T00:37:39.726Z,23.23
2019-03-27T00:40:08.745Z,17.07
2019-03-27T00:42:37.900Z,14.37
2019-03-27T00:45:10.723Z,18.37
2019-03-27T00:47:39.766Z,17.57
2019-03-27T00:50:08.756Z,16.93
2019-03-27T00:52:37.649Z,16.10
2019-03-27T00:55:07.401Z,13.87
2019-03-27T00:57:36.306Z,15.57
2019-03-27T01:00:13.967Z,16.23
2019-03-27T01:02:43.136Z,17.93
2019-03-27T01:05:12.000Z,16.13
2019-03-27T01:07:41.021Z,14.27
2019-03-27T01:10:10.093Z,19.23
2019-03-27T01:12:39.031Z,16.03
2019-03-27T01:15:07.972Z,19.33
2019-03-27T01:17:36.896Z,21.83
2019-03-27T01:20:06.463Z,15.43
2019-03-27T01:22:35.762Z,19.47
2019-03-27T01:25:06.132Z,18.87
2019-03-27T01:27:35.803Z,15.77
2019-03-27T01:30:05.541Z,16.23
2019-03-27T01:32:34.726Z,19.33
2019-03-27T01:35:03.585Z,17.17
2019-03-27T01:37:32.578Z,21.20
2019-03-27T01:40:01.428Z,15.87
2019-03-27T01:42:33.074Z,18.10
2019-03-27T01:45:02.100Z,17.43
2019-03-27T01:47:31.033Z,16.60
2019-03-27T01:49:59.930Z,16.33
2019-03-27T01:52:29.031Z,17.17
2019-03-27T01:54:57.908Z,16.33
2019-03-27T01:57:28.089Z,17.70
2019-03-27T01:59:57.255Z,19.50
2019-03-27T02:02:29.212Z,19.10
2019-03-27T02:04:58.093Z,18.53
2019-03-27T02:07:27.038Z,20.33
2019-03-27T02:09:55.958Z,17.77
2019-03-27T02:12:24.775Z,19.10
2019-03-27T02:14:53.607Z,15.70
2019-03-27T02:17:22.642Z,16.30
2019-03-27T02:19:51.730Z,17.63
2019-03-27T02:22:23.466Z,16.37
2019-03-27T02:24:52.311Z,18.97
2019-03-27T02:27:21.333Z,18.87
2019-03-27T02:29:50.203Z,16.33
2019-03-27T02:32:20.945Z,17.33
2019-03-27T02:34:49.942Z,17.33
2019-03-27T02:37:18.898Z,15.73
2019-03-27T02:39:50.497Z,20.53
2019-03-27T02:42:19.340Z,16.77
2019-03-27T02:44:48.389Z,16.27
2019-03-27T02:47:17.283Z,20.40
2019-03-27T02:49:46.422Z,18.77
2019-03-27T02:52:15.432Z,19.20
2019-03-27T02:54:44.396Z,20.10
2019-03-27T02:57:13.481Z,19.50
2019-03-27T02:59:42.476Z,19.97
2019-03-27T03:02:11.549Z,18.73
2019-03-27T03:04:40.571Z,18.97
2019-03-27T03:07:09.478Z,19.93
2019-03-27T03:09:38.383Z,18.10
2019-03-27T03:12:07.335Z,19.40
2019-03-27T03:14:36.160Z,18.43
2019-03-27T03:17:05.196Z,20.30
2019-03-27T03:19:34.238Z,17.23
2019-03-27T03:22:03.238Z,18.50
2019-03-27T03:24:32.273Z,17.67
2019-03-27T03:27:01.341Z,17.83
2019-03-27T03:29:30.306Z,17.40
2019-03-27T03:31:59.291Z,18.87
2019-03-27T03:34:28.345Z,15.53
2019-03-27T03:36:57.270Z,19.30
2019-03-27T03:39:26.177Z,18.73
2019-03-27T03:41:55.048Z,17.13
2019-03-27T03:44:24.018Z,16.67
2019-03-27T03:47:00.046Z,18.17
2019-03-27T03:49:23.683Z,17.67
2019-03-27T03:51:52.781Z,16.50
2019-03-27T03:54:22.192Z,16.27
2019-03-27T03:56:52.513Z,17.93
2019-03-27T03:59:22.124Z,18.40
2019-03-27T04:01:53.482Z,17.97
2019-03-27T04:04:22.772Z,18.80
2019-03-27T04:06:51.638Z,20.80
2019-03-27T04:09:20.620Z,19.63
2019-03-27T04:11:49.499Z,19.83
2019-03-27T04:14:18.406Z,20.83
2019-03-27T04:16:49.273Z,20.67
2019-03-27T04:19:18.417Z,19.67
2019-03-27T04:21:47.790Z,19.73
2019-03-27T04:24:16.828Z,20.43
2019-03-27T04:26:45.647Z,18.47
2019-03-27T04:29:14.491Z,18.87
2019-03-27T04:31:43.322Z,19.70
2019-03-27T04:34:12.190Z,23.40
2019-03-27T04:36:41.177Z,17.73
2019-03-27T04:39:10.231Z,16.77
2019-03-27T04:41:39.062Z,19.57
2019-03-27T04:44:07.995Z,22.60
2019-03-27T04:46:36.922Z,19.90
2019-03-27T04:49:07.661Z,20.67
2019-03-27T04:51:36.429Z,20.23
2019-03-27T04:54:05.317Z,20.90
2019-03-27T04:56:34.157Z,23.43
2019-03-27T04:59:03.134Z,21.97
2019-03-27T05:01:32.081Z,19.83
2019-03-27T05:04:01.503Z,24.37
2019-03-27T05:06:30.401Z,20.17
2019-03-27T05:08:59.428Z,20.67
2019-03-27T05:11:28.365Z,24.93
2019-03-27T05:13:57.192Z,23.23
2019-03-27T05:16:26.032Z,18.70
2019-03-27T05:18:55.098Z,23.23
2019-03-27T05:21:23.990Z,23.77
2019-03-27T05:23:52.870Z,19.57
2019-03-27T05:26:21.921Z,22.77
2019-03-27T05:28:50.832Z,22.40
2019-03-27T05:31:19.727Z,20.40
2019-03-27T05:33:49.015Z,20.40
2019-03-27T05:36:17.940Z,22.80
2019-03-27T05:38:48.404Z,19.57
2019-03-27T05:41:17.308Z,21.47
2019-03-27T05:43:46.316Z,22.13
2019-03-27T05:46:15.413Z,22.37
2019-03-27T05:48:44.538Z,23.47
2019-03-27T05:51:13.377Z,22.10
2019-03-27T05:53:42.236Z,22.07
2019-03-27T05:56:11.228Z,24.67
2019-03-27T05:58:40.492Z,21.67
2019-03-27T06:01:09.515Z,23.40
2019-03-27T06:03:38.350Z,25.23
2019-03-27T06:06:09.215Z,23.00
2019-03-27T06:08:38.108Z,21.87
2019-03-27T06:11:07.037Z,22.50
2019-03-27T06:13:38.916Z,24.65
2019-03-27T06:16:07.773Z,27.93
2019-03-27T06:18:36.593Z,26.17
2019-03-27T06:21:05.438Z,24.43
2019-03-27T06:23:34.239Z,22.60
2019-03-27T06:26:06.178Z,25.60
2019-03-27T06:28:35.239Z,29.47
2019-03-27T06:31:04.212Z,25.50
2019-03-27T06:33:33.036Z,28.73
2019-03-27T06:36:01.957Z,26.27
2019-03-27T06:38:31.054Z,23.33
2019-03-27T06:40:59.881Z,22.80
2019-03-27T06:43:28.784Z,28.37
2019-03-27T06:45:58.517Z,27.03
2019-03-27T06:48:27.630Z,26.77
2019-03-27T06:50:56.506Z,26.23
2019-03-27T06:53:28.365Z,28.47
2019-03-27T06:55:57.149Z,28.93
2019-03-27T06:58:31.514Z,27.37
2019-03-27T07:01:00.951Z,24.67
2019-03-27T07:03:29.909Z,22.37
2019-03-27T07:05:58.819Z,21.97
2019-03-27T07:08:27.804Z,25.33
2019-03-27T07:10:56.834Z,21.90
2019-03-27T07:13:25.690Z,25.87
2019-03-27T07:15:54.545Z,23.53
2019-03-27T07:18:23.473Z,22.60
2019-03-27T07:20:52.277Z,19.20
2019-03-27T07:23:21.221Z,25.87
2019-03-27T07:25:50.316Z,23.33
2019-03-27T07:28:19.200Z,19.63
2019-03-27T07:30:48.188Z,25.20
2019-03-27T07:33:17.067Z,19.63
2019-03-27T07:35:46.075Z,28.40
2019-03-27T07:38:45.558Z,30.80
2019-03-27T07:40:56.061Z,22.97
2019-03-27T07:43:24.871Z,20.47
2019-03-27T07:45:53.938Z,23.20
2019-03-27T07:48:22.790Z,20.37
2019-03-27T07:50:51.616Z,22.03
2019-03-27T07:53:22.481Z,20.73
2019-03-27T07:55:51.221Z,21.50
2019-03-27T07:58:20.037Z,19.93
2019-03-27T08:00:48.892Z,18.97
2019-03-27T08:03:17.719Z,20.07
2019-03-27T08:05:46.573Z,23.20
2019-03-27T08:08:15.426Z,18.53
2019-03-27T08:10:44.302Z,19.63
2019-03-27T08:13:13.128Z,23.50
2019-03-27T08:16:01.379Z,21.80
2019-03-27T08:18:30.318Z,20.60
2019-03-27T08:20:59.319Z,21.33
2019-03-27T08:23:28.397Z,19.63
2019-03-27T08:25:57.315Z,16.60
2019-03-27T08:28:26.196Z,19.27
2019-03-27T08:30:55.223Z,20.03
2019-03-27T08:33:24.237Z,18.63
2019-03-27T08:35:53.150Z,18.07
2019-03-27T08:38:24.891Z,15.43
2019-03-27T08:40:53.885Z,17.23
2019-03-27T08:43:25.489Z,18.23
2019-03-27T08:45:53.219Z,13.57
2019-03-27T08:48:22.036Z,16.73
2019-03-27T08:50:50.961Z,15.47
2019-03-27T08:53:19.763Z,12.30
2019-03-27T08:55:48.768Z,13.93
2019-03-27T08:58:17.578Z,17.70
2019-03-27T09:00:50.918Z,21.37
2019-03-27T09:03:19.836Z,15.77
2019-03-27T09:05:48.998Z,18.77
2019-03-27T09:08:18.148Z,16.80
2019-03-27T09:10:47.019Z,15.00
2019-03-27T09:13:15.926Z,15.33
2019-03-27T09:15:45.086Z,12.50
2019-03-27T09:18:16.793Z,13.70
2019-03-27T09:20:44.522Z,15.70
2019-03-27T09:23:13.375Z,14.83
2019-03-27T09:25:42.292Z,16.13
2019-03-27T09:28:11.167Z,11.30
2019-03-27T09:30:40.144Z,12.17
2019-03-27T09:33:09.044Z,12.83
2019-03-27T09:35:38.166Z,12.70
2019-03-27T09:38:07.158Z,11.97
2019-03-27T09:40:36.159Z,10.57
2019-03-27T09:43:05.107Z,11.83
2019-03-27T09:45:34.072Z,10.60
2019-03-27T09:48:02.932Z,17.40
2019-03-27T09:50:31.732Z,11.30
2019-03-27T09:53:00.781Z,11.17
2019-03-27T09:55:29.719Z,11.17
2019-03-27T09:57:58.962Z,11.33
2019-03-27T10:00:46.074Z,14.00
2019-03-27T10:03:15.523Z,10.43
2019-03-27T10:05:44.620Z,10.30
2019-03-27T10:08:13.580Z,10.73
2019-03-27T10:10:42.556Z,14.83
2019-03-27T10:13:11.539Z,12.57
2019-03-27T10:15:40.478Z,11.37
2019-03-27T10:18:09.371Z,13.87
2019-03-27T10:20:38.345Z,15.20
2019-03-27T10:23:07.215Z,11.80
2019-03-27T10:25:36.364Z,10.13
2019-03-27T10:28:05.223Z,12.57
2019-03-27T10:30:34.326Z,11.53
2019-03-27T10:33:03.136Z,13.63
2019-03-27T10:35:32.122Z,10.23
2019-03-27T10:38:01.028Z,9.30
2019-03-27T10:40:29.847Z,9.17
2019-03-27T10:42:58.710Z,8.57
2019-03-27T10:45:27.624Z,11.83
2019-03-27T10:47:56.417Z,8.07
2019-03-27T10:50:25.317Z,9.00
2019-03-27T10:52:54.107Z,10.87
2019-03-27T10:55:23.237Z,9.10
2019-03-27T10:57:52.061Z,10.60
2019-03-27T11:00:21.528Z,12.60
2019-03-27T11:02:50.392Z,12.57
2019-03-27T11:05:19.430Z,7.37
2019-03-27T11:07:48.351Z,8.00
2019-03-27T11:10:17.181Z,10.67
2019-03-27T11:12:46.130Z,9.93
2019-03-27T11:15:15.006Z,7.03
2019-03-27T11:17:44.010Z,10.50
2019-03-27T11:20:13.881Z,5.90
2019-03-27T11:22:42.703Z,7.20
2019-03-27T11:25:11.627Z,6.57
2019-03-27T11:27:40.693Z,6.17
2019-03-27T11:30:09.549Z,5.57
2019-03-27T11:32:38.445Z,6.53
2019-03-27T11:35:07.370Z,6.23
2019-03-27T11:37:36.700Z,6.93
2019-03-27T11:40:06.034Z,9.17
2019-03-27T11:42:34.969Z,7.87
2019-03-27T11:45:05.903Z,8.20
2019-03-27T11:47:34.833Z,7.13
2019-03-27T11:50:05.259Z,8.37
2019-03-27T11:52:34.126Z,9.33
2019-03-27T11:55:03.101Z,6.63
2019-03-27T11:57:33.812Z,6.70
2019-03-27T12:00:08.282Z,6.77
2019-03-27T12:02:37.627Z,7.07
2019-03-27T12:05:07.139Z,6.73
2019-03-27T12:07:35.965Z,5.97
2019-03-27T12:10:07.960Z,6.90
2019-03-27T12:12:36.777Z,7.53
2019-03-27T12:15:06.670Z,6.23
2019-03-27T12:17:35.688Z,6.07
2019-03-27T12:20:05.517Z,5.50
2019-03-27T12:22:34.515Z,5.90
2019-03-27T12:25:03.890Z,5.23
2019-03-27T12:27:32.953Z,4.93
2019-03-27T12:30:01.806Z,6.30
2019-03-27T12:32:30.655Z,7.30
2019-03-27T12:34:59.821Z,5.43
2019-03-27T12:37:28.898Z,5.93
2019-03-27T12:39:57.796Z,4.37
2019-03-27T12:42:26.581Z,6.47
2019-03-27T12:44:55.428Z,7.70
2019-03-27T12:47:24.350Z,6.13
2019-03-27T12:49:53.274Z,4.60
2019-03-27T12:52:22.148Z,4.47
2019-03-27T12:54:51.213Z,5.27
2019-03-27T12:57:20.013Z,4.37
2019-03-27T12:59:50.614Z,4.70
2019-03-27T13:02:19.449Z,7.17
2019-03-27T13:04:48.341Z,5.07
2019-03-27T13:07:17.343Z,6.43
2019-03-27T13:09:46.455Z,5.20
2019-03-27T13:12:15.272Z,5.13
2019-03-27T13:14:44.185Z,6.83
2019-03-27T13:17:13.344Z,7.10
2019-03-27T13:19:42.268Z,5.53
2019-03-27T13:22:11.196Z,5.90
2019-03-27T13:24:39.971Z,5.40
2019-03-27T13:27:09.253Z,7.63
2019-03-27T13:29:38.142Z,4.93
2019-03-27T13:32:07.105Z,5.03
2019-03-27T13:34:36.520Z,3.90
2019-03-27T13:37:05.360Z,4.93
2019-03-27T13:39:34.149Z,5.23
2019-03-27T13:42:03.004Z,4.17
2019-03-27T13:44:37.202Z,3.10
2019-03-27T13:47:02.521Z,5.47
2019-03-27T13:49:31.519Z,4.47
2019-03-27T13:52:01.816Z,4.07
2019-03-27T13:54:30.694Z,4.00
2019-03-27T13:56:59.697Z,4.27
2019-03-27T13:59:28.505Z,4.43
2019-03-27T14:01:57.349Z,4.00
2019-03-27T14:04:26.244Z,6.13
2019-03-27T14:06:55.150Z,5.23
2019-03-27T14:09:24.127Z,5.30
2019-03-27T14:11:53.179Z,3.63
2019-03-27T14:14:21.993Z,5.57
2019-03-27T14:16:51.057Z,3.90
2019-03-27T14:19:20.044Z,3.70
2019-03-27T14:21:54.903Z,4.87
2019-03-27T14:24:23.441Z,4.47
2019-03-27T14:26:52.324Z,5.10
2019-03-27T14:29:21.202Z,4.50
2019-03-27T14:31:50.196Z,5.43
2019-03-27T14:34:19.718Z,4.40
2019-03-27T14:36:48.918Z,5.53
2019-03-27T14:39:17.852Z,5.13
2019-03-27T14:41:46.759Z,5.60
2019-03-27T14:44:15.603Z,4.90
2019-03-27T14:46:44.447Z,3.87
2019-03-27T14:49:13.411Z,4.80
2019-03-27T14:51:42.285Z,3.57
2019-03-27T14:54:11.207Z,3.80
2019-03-27T14:56:40.071Z,4.00
2019-03-27T14:59:08.913Z,4.00
2019-03-27T15:01:37.848Z,4.43
2019-03-27T15:04:06.817Z,4.67
2019-03-27T15:06:35.647Z,4.43
2019-03-27T15:09:06.697Z,3.83
2019-03-27T15:11:35.549Z,4.90
2019-03-27T15:14:04.769Z,5.37
2019-03-27T15:16:34.082Z,3.80
2019-03-27T15:19:03.276Z,5.87
2019-03-27T15:21:32.150Z,4.37
2019-03-27T15:24:01.038Z,5.27
2019-03-27T15:26:30.149Z,5.03
2019-03-27T15:28:59.112Z,4.60
2019-03-27T15:31:28.009Z,5.60
2019-03-27T15:33:56.938Z,9.77
2019-03-27T15:36:25.765Z,8.37
2019-03-27T15:38:57.257Z,5.13
2019-03-27T15:41:26.097Z,5.13
2019-03-27T15:43:55.282Z,4.67
2019-03-27T15:46:24.194Z,4.43
2019-03-27T15:48:53.159Z,4.63
2019-03-27T15:51:22.001Z,5.43
2019-03-27T15:53:50.920Z,6.10
2019-03-27T15:56:19.748Z,5.77
2019-03-27T15:58:48.709Z,5.40
2019-03-27T16:01:17.559Z,4.63
2019-03-27T16:03:46.428Z,4.30
2019-03-27T16:06:15.382Z,6.20
2019-03-27T16:08:44.164Z,6.03
2019-03-27T16:11:13.128Z,4.63
2019-03-27T16:13:42.041Z,4.23
2019-03-27T16:16:10.891Z,6.30
2019-03-27T16:18:39.866Z,5.93
2019-03-27T16:21:08.743Z,5.47
2019-03-27T16:23:37.917Z,5.13
2019-03-27T16:26:06.761Z,4.23
2019-03-27T16:28:35.857Z,3.83
2019-03-27T16:31:05.010Z,3.83
2019-03-27T16:33:34.041Z,4.10
2019-03-27T16:36:03.089Z,5.67
2019-03-27T16:38:31.896Z,4.87
2019-03-27T16:41:00.938Z,4.30
2019-03-27T16:43:29.849Z,4.67
2019-03-27T16:45:59.192Z,3.90
2019-03-27T16:48:28.078Z,5.40
2019-03-27T16:50:56.967Z,5.43
2019-03-27T16:53:25.929Z,4.03
2019-03-27T16:55:55.066Z,4.97
2019-03-27T16:58:24.035Z,4.73
2019-03-27T17:00:52.998Z,3.80
2019-03-27T17:03:21.978Z,4.87
2019-03-27T17:05:54.299Z,3.53
2019-03-27T17:08:21.870Z,4.70
2019-03-27T17:10:50.826Z,4.27
2019-03-27T17:13:19.928Z,4.17
2019-03-27T17:15:48.849Z,3.97
2019-03-27T17:18:17.771Z,4.27
2019-03-27T17:20:46.732Z,4.13
2019-03-27T17:23:18.351Z,3.83
2019-03-27T17:25:46.620Z,5.00
2019-03-27T17:28:17.154Z,4.20
2019-03-27T17:30:46.177Z,3.43
2019-03-27T17:33:15.309Z,4.27
2019-03-27T17:35:44.273Z,5.77
2019-03-27T17:38:13.146Z,3.97
2019-03-27T17:40:42.054Z,4.00
2019-03-27T17:43:11.009Z,4.10
2019-03-27T17:45:39.864Z,4.23
2019-03-27T17:48:08.655Z,4.33
2019-03-27T17:50:37.605Z,5.97
2019-03-27T17:53:06.500Z,4.67
2019-03-27T17:55:35.406Z,5.57
2019-03-27T17:58:05.306Z,4.43
2019-03-27T18:00:44.928Z,4.37
2019-03-27T18:03:14.010Z,3.53
2019-03-27T18:05:43.029Z,4.13
2019-03-27T18:08:11.825Z,6.67
2019-03-27T18:10:46.016Z,4.90
2019-03-27T18:13:14.285Z,7.60
2019-03-27T18:15:43.156Z,5.62
2019-03-27T18:18:12.186Z,5.70
2019-03-27T18:20:41.159Z,5.93
2019-03-27T18:23:09.988Z,4.60
2019-03-27T18:25:39.100Z,5.80
2019-03-27T18:28:08.320Z,5.40
2019-03-27T18:30:37.426Z,6.37
2019-03-27T18:33:06.455Z,7.20
2019-03-27T18:35:35.264Z,5.00
2019-03-27T18:38:04.773Z,7.37
2019-03-27T18:40:36.386Z,8.37
2019-03-27T18:43:05.489Z,7.03
2019-03-27T18:45:34.329Z,7.80
2019-03-27T18:48:03.400Z,6.93
2019-03-27T18:50:32.424Z,6.13
2019-03-27T18:53:01.524Z,8.97
2019-03-27T18:55:30.523Z,7.77
2019-03-27T18:58:00.756Z,6.30
2019-03-27T19:00:29.963Z,7.63
2019-03-27T19:02:59.074Z,7.87
2019-03-27T19:05:28.003Z,8.03
2019-03-27T19:07:57.060Z,7.83
2019-03-27T19:10:25.989Z,6.27
2019-03-27T19:12:56.655Z,6.60
2019-03-27T19:15:25.791Z,7.97
2019-03-27T19:17:54.706Z,7.97
2019-03-27T19:20:26.770Z,7.53
2019-03-27T19:22:55.712Z,8.57
2019-03-27T19:25:24.978Z,7.17
2019-03-27T19:27:54.179Z,8.90
2019-03-27T19:30:23.287Z,6.73
2019-03-27T19:32:52.261Z,8.20
2019-03-27T19:35:21.202Z,6.60
2019-03-27T19:37:50.090Z,7.70
2019-03-27T19:40:19.227Z,6.37
2019-03-27T19:42:48.385Z,5.43
2019-03-27T19:45:17.657Z,5.47
2019-03-27T19:47:46.827Z,10.87
2019-03-27T19:50:15.718Z,7.90
2019-03-27T19:52:44.647Z,8.10
2019-03-27T19:55:13.527Z,6.73
2019-03-27T19:57:42.415Z,8.17
2019-03-27T20:00:11.404Z,7.33
2019-03-27T20:02:40.407Z,6.97
2019-03-27T20:05:09.601Z,6.37
2019-03-27T20:07:41.288Z,6.70
2019-03-27T20:10:16.017Z,6.17
2019-03-27T20:12:45.078Z,6.87
2019-03-27T20:15:14.149Z,9.53
2019-03-27T20:17:43.015Z,8.53
2019-03-27T20:20:12.754Z,5.47
2019-03-27T20:22:41.818Z,8.73
2019-03-27T20:25:14.424Z,6.57
2019-03-27T20:27:41.686Z,6.23
2019-03-27T20:30:18.479Z,7.87
2019-03-27T20:32:47.748Z,8.00
2019-03-27T20:35:16.704Z,6.90
2019-03-27T20:37:45.735Z,6.47
2019-03-27T20:40:14.625Z,7.50
2019-03-27T20:42:43.772Z,6.20
2019-03-27T20:45:12.832Z,7.77
2019-03-27T20:47:41.771Z,6.27
2019-03-27T20:50:10.729Z,8.57
2019-03-27T20:52:39.645Z,7.17
2019-03-27T20:55:08.695Z,6.90
2019-03-27T20:57:37.792Z,7.80
2019-03-27T21:00:07.263Z,8.17
2019-03-27T21:02:36.311Z,7.00
2019-03-27T21:05:06.722Z,7.90
2019-03-27T21:07:35.736Z,7.47
2019-03-27T21:10:06.718Z,7.10
2019-03-27T21:12:35.726Z,9.87
2019-03-27T21:15:06.098Z,6.73
2019-03-27T21:17:34.988Z,8.67
2019-03-27T21:20:06.726Z,8.03
2019-03-27T21:22:35.689Z,8.30
2019-03-27T21:25:08.924Z,10.80
2019-03-27T21:27:36.797Z,7.87
2019-03-27T21:30:09.355Z,8.50
2019-03-27T21:32:38.251Z,7.67
2019-03-27T21:35:07.201Z,9.63
2019-03-27T21:37:37.206Z,7.37
2019-03-27T21:40:18.351Z,7.33
2019-03-27T21:42:47.345Z,10.47
2019-03-27T21:45:19.796Z,7.20
2019-03-27T21:47:48.884Z,8.50
2019-03-27T21:50:18.005Z,7.67
2019-03-27T21:52:59.484Z,9.43
2019-03-27T21:55:22.934Z,9.80
2019-03-27T21:57:48.234Z,10.17
2019-03-27T22:00:20.464Z,10.93
2019-03-27T22:02:49.418Z,8.27
2019-03-27T22:05:18.377Z,8.37
2019-03-27T22:07:47.240Z,8.03
2019-03-27T22:10:17.768Z,7.40
2019-03-27T22:12:48.269Z,9.57
2019-03-27T22:15:17.205Z,11.60
2019-03-27T22:17:46.143Z,10.27
2019-03-27T22:20:15.242Z,10.53
2019-03-27T22:22:44.318Z,9.17
2019-03-27T22:25:13.181Z,8.63
2019-03-27T22:27:42.110Z,8.80
2019-03-27T22:30:11.175Z,11.80
2019-03-27T22:32:40.143Z,9.60
2019-03-27T22:35:09.120Z,10.07
2019-03-27T22:37:38.047Z,10.87
2019-03-27T22:40:07.349Z,11.10
2019-03-27T22:42:36.307Z,9.10
2019-03-27T22:45:05.675Z,7.87
2019-03-27T22:47:34.686Z,8.97
2019-03-27T22:50:08.010Z,11.03
2019-03-27T22:52:36.009Z,10.47
2019-03-27T22:55:07.213Z,8.50
2019-03-27T22:57:37.720Z,11.33
2019-03-27T23:00:11.207Z,8.90
2019-03-27T23:02:40.369Z,10.17
2019-03-27T23:05:09.374Z,9.87
2019-03-27T23:07:39.452Z,9.67
2019-03-27T23:10:08.386Z,9.10
2019-03-27T23:12:38.667Z,9.47
2019-03-27T23:15:09.235Z,9.13
2019-03-27T23:17:38.241Z,9.97
2019-03-27T23:20:07.706Z,10.17
2019-03-27T23:22:36.520Z,8.83
2019-03-27T23:25:05.936Z,9.40
2019-03-27T23:27:34.919Z,11.07
2019-03-27T23:30:06.127Z,10.13
2019-03-27T23:32:35.415Z,9.70
2019-03-27T23:35:06.459Z,9.30
2019-03-27T23:37:35.456Z,8.83
2019-03-27T23:40:05.311Z,7.53
2019-03-27T23:42:34.735Z,10.93
2019-03-27T23:45:04.402Z,9.03
2019-03-27T23:47:33.618Z,10.23
2019-03-27T23:50:02.830Z,10.03
2019-03-27T23:52:31.784Z,12.13
2019-03-27T23:55:03.910Z,10.87
2019-03-27T23:57:32.914Z,12.30
